Time;durP1;ratioP1;P1;durP2;ratioP2;P2;SDS_P1;SDS_P2;PMS_P1;PMS_P2;Temp;Humidity;BMP_temperature;BMP_pressure;BME280_temperature;BME280_humidity;BME280_pressure;Samples;Min_cycle;Max_cycle;Signal;HPM_P1;HPM_P2
2022/09/29 00:01:44;;;;;;;10.00;8.60;;;8.60;99.90;;;;;;5074737;28;20468;-76
2022/09/29 00:04:11;;;;;;;9.67;8.67;;;8.70;99.90;;;;;;5074676;28;20455;-76
2022/09/29 00:06:38;;;;;;;8.50;6.93;;;8.70;99.90;;;;;;5074022;28;20477;-75
2022/09/29 00:09:05;;;;;;;8.93;7.60;;;8.70;99.90;;;;;;5074421;28;20450;-75
2022/09/29 00:11:33;;;;;;;10.87;8.00;;;8.70;99.90;;;;;;5075189;28;20455;-74
2022/09/29 00:13:59;;;;;;;11.73;8.00;;;8.70;99.90;;;;;;5074649;28;20446;-75
2022/09/29 00:16:26;;;;;;;8.77;7.10;;;8.70;99.90;;;;;;5074795;28;20454;-76
2022/09/29 00:18:54;;;;;;;8.70;6.80;;;8.70;99.90;;;;;;5074433;28;20505;-76
2022/09/29 00:21:22;;;;;;;8.03;7.20;;;8.70;99.90;;;;;;5074540;28;20522;-75
2022/09/29 00:23:49;;;;;;;14.97;7.40;;;8.70;99.90;;;;;;5074719;28;20419;-75
2022/09/29 00:26:18;;;;;;;9.20;7.97;;;8.60;99.90;;;;;;5074378;28;20516;-76
2022/09/29 00:28:48;;;;;;;12.50;8.73;;;8.60;99.90;;;;;;5074272;28;20438;-75
2022/09/29 00:31:15;;;;;;;15.93;10.17;;;8.60;99.90;;;;;;5074047;28;20423;-75
2022/09/29 00:33:42;;;;;;;13.57;10.90;;;8.60;99.90;;;;;;5073591;28;20423;-74
2022/09/29 00:36:12;;;;;;;14.43;11.80;;;8.60;99.90;;;;;;5073965;28;20427;-75
2022/09/29 00:38:40;;;;;;;12.30;9.93;;;8.50;99.90;;;;;;5073847;28;20435;-74
2022/09/29 00:41:09;;;;;;;14.17;10.40;;;8.40;99.90;;;;;;5073405;28;20988;-75
2022/09/29 00:43:53;;;;;;;13.10;9.33;;;8.40;99.90;;;;;;5073991;28;20426;-75
2022/09/29 00:46:26;;;;;;;13.03;8.73;;;8.40;99.90;;;;;;5073767;28;20478;-75
2022/09/29 00:48:54;;;;;;;10.30;7.40;;;8.50;99.90;;;;;;5073526;28;20957;-76
2022/09/29 00:51:22;;;;;;;12.83;8.47;;;8.50;99.90;;;;;;5073751;28;20505;-74
2022/09/29 00:53:49;;;;;;;12.87;9.17;;;8.40;99.90;;;;;;5073777;28;20449;-75
2022/09/29 00:56:19;;;;;;;11.95;8.35;;;8.40;99.90;;;;;;5073676;28;20450;-77
2022/09/29 00:58:53;;;;;;;10.20;7.33;;;8.40;99.90;;;;;;5073861;28;20230;-75
2022/09/29 01:01:21;;;;;;;8.43;7.50;;;8.40;99.90;;;;;;5073830;28;20425;-76
2022/09/29 01:03:49;;;;;;;7.27;6.37;;;8.30;99.90;;;;;;5074769;28;20484;-75
2022/09/29 01:06:19;;;;;;;8.70;6.93;;;8.30;99.90;;;;;;5075448;28;20480;-74
2022/09/29 01:08:51;;;;;;;8.33;6.97;;;8.30;99.90;;;;;;5085118;22;20474;-74
2022/09/29 01:11:21;;;;;;;8.63;7.67;;;8.30;99.90;;;;;;5053481;28;20894;-74
2022/09/29 01:13:50;;;;;;;12.13;7.65;;;8.30;99.90;;;;;;5054215;28;20438;-74
2022/09/29 01:16:17;;;;;;;8.68;7.75;;;8.30;99.90;;;;;;5055233;28;20203;-74
2022/09/29 01:18:44;;;;;;;13.07;8.40;;;8.20;99.90;;;;;;5054411;28;20225;-74
2022/09/29 01:21:20;;;;;;;8.90;7.67;;;8.20;99.90;;;;;;5055008;28;20452;-74
2022/09/29 01:24:13;;;;;;;9.87;6.83;;;8.20;99.90;;;;;;5054440;28;20472;-74
2022/09/29 01:27:13;;;;;;;10.10;7.05;;;8.20;99.90;;;;;;5001106;28;20462;-73
2022/09/29 01:30:02;;;;;;;10.27;8.97;;;8.20;99.90;;;;;;5054673;28;20194;-74
2022/09/29 01:32:43;;;;;;;9.57;8.60;;;8.30;99.90;;;;;;5053725;28;20849;-74
2022/09/29 01:35:16;;;;;;;10.15;8.18;;;8.10;99.90;;;;;;5053295;28;20748;-74
2022/09/29 01:37:57;;;;;;;9.33;7.90;;;8.10;99.90;;;;;;5052895;28;20720;-74
2022/09/29 01:40:30;;;;;;;11.03;7.50;;;8.10;99.90;;;;;;5053518;28;20400;-74
2022/09/29 01:43:04;;;;;;;10.10;7.93;;;8.10;99.90;;;;;;5053305;28;20437;-74
2022/09/29 01:45:34;;;;;;;9.13;7.23;;;8.10;99.90;;;;;;5053412;28;20336;-74
2022/09/29 01:48:06;;;;;;;10.77;7.90;;;8.10;99.90;;;;;;5053859;28;20470;-74
2022/09/29 01:50:36;;;;;;;9.50;8.00;;;8.10;99.90;;;;;;5052941;28;20187;-74
2022/09/29 01:53:08;;;;;;;9.57;7.80;;;8.20;99.90;;;;;;5053362;28;20196;-74
2022/09/29 01:55:42;;;;;;;8.40;7.40;;;8.20;99.90;;;;;;5053087;28;20189;-73
2022/09/29 01:58:13;;;;;;;12.10;8.35;;;8.20;99.90;;;;;;5053010;28;20838;-73
2022/09/29 02:00:48;;;;;;;10.63;8.40;;;8.30;99.90;;;;;;5053245;28;20195;-74
2022/09/29 02:03:19;;;;;;;11.55;7.93;;;8.20;99.90;;;;;;5054020;28;20439;-73
2022/09/29 02:05:50;;;;;;;11.93;7.20;;;8.20;99.90;;;;;;5052996;28;20208;-73
2022/09/29 02:08:22;;;;;;;12.07;8.25;;;8.10;99.90;;;;;;5052587;28;20598;-73
2022/09/29 02:10:53;;;;;;;11.25;8.02;;;8.10;99.90;;;;;;5052869;28;20195;-73
2022/09/29 02:13:22;;;;;;;12.48;8.95;;;8.10;99.90;;;;;;5052980;28;20194;-73
2022/09/29 02:15:54;;;;;;;12.17;10.10;;;8.10;99.90;;;;;;5052764;28;20202;-74
2022/09/29 02:18:27;;;;;;;12.63;8.95;;;8.10;99.90;;;;;;5053331;28;20467;-73
2022/09/29 02:20:53;;;;;;;12.23;8.73;;;8.10;99.90;;;;;;5052885;28;20198;-73
2022/09/29 02:23:20;;;;;;;11.63;9.23;;;8.20;99.90;;;;;;5052687;28;20206;-73
2022/09/29 02:25:50;;;;;;;11.20;8.20;;;8.20;99.90;;;;;;5052885;28;20537;-73
2022/09/29 02:28:17;;;;;;;9.93;8.83;;;8.30;99.90;;;;;;5052463;28;20899;-73
2022/09/29 02:30:45;;;;;;;7.90;7.00;;;8.20;99.90;;;;;;5055028;28;20448;-73
2022/09/29 02:33:19;;;;;;;12.60;8.87;;;8.20;99.90;;;;;;5056432;28;20212;-73
2022/09/29 02:35:56;;;;;;;20.30;9.80;;;8.20;99.90;;;;;;5056385;28;20446;-73
2022/09/29 02:38:29;;;;;;;13.38;9.05;;;8.20;99.90;;;;;;5056470;28;20553;-73
2022/09/29 02:41:05;;;;;;;14.30;9.50;;;8.20;99.90;;;;;;5056668;28;20240;-73
2022/09/29 02:43:47;;;;;;;14.18;10.10;;;8.10;99.90;;;;;;5056492;28;20411;-73
2022/09/29 02:46:28;;;;;;;12.30;8.77;;;8.10;99.90;;;;;;5057806;28;20214;-73
2022/09/29 02:49:20;;;;;;;12.68;9.45;;;8.10;99.90;;;;;;5060534;28;20468;-73
2022/09/29 02:51:51;;;;;;;15.77;10.73;;;8.10;99.90;;;;;;5062047;28;20296;-73
2022/09/29 02:54:36;;;;;;;17.00;10.70;;;8.10;99.90;;;;;;5061237;28;20202;-74
2022/09/29 02:57:16;;;;;;;14.00;10.82;;;8.00;99.90;;;;;;5059507;28;20411;-74
2022/09/29 02:59:49;;;;;;;15.63;11.13;;;8.00;99.90;;;;;;5057394;28;20186;-74
2022/09/29 03:02:22;;;;;;;14.13;10.80;;;8.00;99.90;;;;;;5057105;28;20214;-73
2022/09/29 03:04:49;;;;;;;17.33;11.93;;;8.00;99.90;;;;;;5056143;28;20194;-73
2022/09/29 03:07:17;;;;;;;16.20;11.23;;;8.00;99.90;;;;;;5055951;28;20850;-73
2022/09/29 03:09:43;;;;;;;14.50;10.70;;;8.00;99.90;;;;;;5055538;28;20416;-73
2022/09/29 03:12:11;;;;;;;17.10;11.00;;;8.10;99.90;;;;;;5055944;28;20482;-73
2022/09/29 03:14:37;;;;;;;15.77;9.77;;;8.20;99.90;;;;;;5055557;28;20433;-73
2022/09/29 03:17:04;;;;;;;16.67;12.05;;;8.20;99.90;;;;;;5055706;28;20468;-73
2022/09/29 03:19:31;;;;;;;15.50;11.43;;;8.50;99.90;;;;;;5055534;28;20291;-73
2022/09/29 03:21:57;;;;;;;14.93;11.73;;;8.20;99.90;;;;;;5055390;28;20431;-73
2022/09/29 03:24:26;;;;;;;15.37;10.77;;;8.30;99.90;;;;;;5055249;28;20680;-73
2022/09/29 03:26:52;;;;;;;14.57;10.80;;;8.30;99.90;;;;;;5055674;28;20816;-73
2022/09/29 03:29:19;;;;;;;11.80;9.60;;;8.40;99.90;;;;;;5054878;28;20978;-73
2022/09/29 03:31:46;;;;;;;14.38;10.70;;;8.30;99.90;;;;;;5055277;28;20423;-73
2022/09/29 03:34:12;;;;;;;17.37;12.53;;;8.40;99.90;;;;;;5055240;28;20210;-73
2022/09/29 03:36:40;;;;;;;15.37;11.57;;;8.50;99.90;;;;;;5055045;28;20416;-73
2022/09/29 03:39:07;;;;;;;15.43;10.67;;;8.50;99.90;;;;;;5055034;28;20483;-73
2022/09/29 03:41:35;;;;;;;21.90;12.60;;;8.50;99.90;;;;;;5054056;28;20498;-74
2022/09/29 03:44:02;;;;;;;22.10;12.20;;;8.60;99.90;;;;;;5055155;28;20424;-73
2022/09/29 03:46:29;;;;;;;18.67;11.90;;;8.60;99.90;;;;;;5054486;28;21003;-73
2022/09/29 03:48:55;;;;;;;17.88;12.13;;;8.60;99.90;;;;;;5054852;28;20526;-74
2022/09/29 03:51:22;;;;;;;14.77;11.67;;;8.60;99.90;;;;;;5054814;28;20209;-73
2022/09/29 03:53:49;;;;;;;14.40;11.13;;;8.60;99.90;;;;;;5055377;28;20431;-73
2022/09/29 03:56:15;;;;;;;20.03;11.40;;;8.60;99.90;;;;;;5054644;28;20476;-73
2022/09/29 03:58:43;;;;;;;17.97;11.60;;;8.50;99.90;;;;;;5054555;28;20452;-73
2022/09/29 04:01:10;;;;;;;16.50;11.50;;;8.50;99.90;;;;;;5054753;28;20506;-73
2022/09/29 04:03:36;;;;;;;14.18;11.65;;;8.50;99.90;;;;;;5054672;28;20855;-73
2022/09/29 04:06:03;;;;;;;19.20;12.70;;;8.60;99.90;;;;;;5055141;28;20608;-74
2022/09/29 04:08:30;;;;;;;17.40;12.47;;;8.50;99.90;;;;;;5054223;28;20470;-73
2022/09/29 04:10:57;;;;;;;14.53;11.00;;;8.50;99.90;;;;;;5054317;28;20428;-73
2022/09/29 04:13:23;;;;;;;13.47;10.40;;;8.50;99.90;;;;;;5054425;28;20431;-73
2022/09/29 04:15:51;;;;;;;13.90;10.50;;;8.50;99.90;;;;;;5054813;28;20449;-73
2022/09/29 04:18:18;;;;;;;14.63;11.30;;;8.50;99.90;;;;;;5054533;28;20451;-74
2022/09/29 04:20:44;;;;;;;16.90;11.70;;;8.50;99.90;;;;;;5054748;28;20455;-73
2022/09/29 04:23:12;;;;;;;16.70;11.80;;;8.50;99.90;;;;;;5054893;28;20420;-73
2022/09/29 04:25:39;;;;;;;16.07;11.67;;;8.70;99.90;;;;;;5054863;28;20803;-72
2022/09/29 04:28:05;;;;;;;16.90;11.03;;;8.30;99.90;;;;;;5054147;28;20812;-74
2022/09/29 04:30:32;;;;;;;16.20;11.77;;;8.50;99.90;;;;;;5053867;28;20481;-73
2022/09/29 04:33:00;;;;;;;13.07;10.73;;;8.50;99.90;;;;;;5054026;28;20420;-73
2022/09/29 04:35:26;;;;;;;13.90;11.03;;;8.50;99.90;;;;;;5053856;28;20769;-72
2022/09/29 04:37:58;;;;;;;18.10;12.48;;;8.50;99.90;;;;;;5053692;28;20443;-72
2022/09/29 04:40:25;;;;;;;17.17;12.15;;;8.40;99.90;;;;;;5053434;28;20194;-73
2022/09/29 04:42:51;;;;;;;18.57;12.97;;;8.30;99.90;;;;;;5053628;28;20276;-73
2022/09/29 04:45:18;;;;;;;15.07;11.40;;;8.30;99.90;;;;;;5053648;28;20439;-74
2022/09/29 04:47:44;;;;;;;18.23;11.38;;;8.20;99.90;;;;;;5053564;28;20493;-73
2022/09/29 04:50:12;;;;;;;16.57;12.77;;;8.20;99.90;;;;;;5053575;28;20210;-73
2022/09/29 04:52:42;;;;;;;15.90;11.77;;;8.20;99.90;;;;;;5053102;28;20480;-73
2022/09/29 04:55:11;;;;;;;19.90;13.43;;;8.20;99.90;;;;;;5053896;28;20511;-74
2022/09/29 04:57:38;;;;;;;16.43;13.10;;;8.30;99.90;;;;;;5053984;28;20513;-74
2022/09/29 05:00:06;;;;;;;19.57;12.77;;;8.30;99.90;;;;;;5053876;28;20466;-74
2022/09/29 05:02:33;;;;;;;18.45;13.55;;;8.20;99.90;;;;;;5052903;28;20426;-74
2022/09/29 05:05:00;;;;;;;19.70;11.90;;;8.20;99.90;;;;;;5053827;28;20558;-74
2022/09/29 05:07:28;;;;;;;20.10;11.73;;;8.30;99.90;;;;;;5053716;28;20893;-74
2022/09/29 05:09:55;;;;;;;16.23;12.95;;;8.40;99.90;;;;;;5054910;28;20433;-74
2022/09/29 05:12:22;;;;;;;21.00;13.23;;;8.40;99.90;;;;;;5054352;28;20261;-73
2022/09/29 05:14:48;;;;;;;19.50;14.23;;;8.50;99.90;;;;;;5054094;28;20502;-74
2022/09/29 05:17:15;;;;;;;16.00;11.37;;;8.60;99.90;;;;;;5053763;28;20922;-73
2022/09/29 05:19:42;;;;;;;19.77;12.37;;;8.50;99.90;;;;;;5053697;28;20510;-73
2022/09/29 05:22:08;;;;;;;14.18;10.88;;;8.50;99.90;;;;;;5052968;28;20423;-74
2022/09/29 05:24:36;;;;;;;22.00;13.67;;;8.50;99.90;;;;;;5053842;28;20557;-73
2022/09/29 05:27:03;;;;;;;23.00;13.10;;;8.50;99.90;;;;;;5053207;28;20880;-73
2022/09/29 05:29:30;;;;;;;21.37;13.17;;;8.60;99.90;;;;;;5053043;28;20458;-73
2022/09/29 05:31:57;;;;;;;18.53;12.77;;;8.60;99.90;;;;;;5053479;28;20536;-73
2022/09/29 05:34:23;;;;;;;23.33;12.80;;;8.50;99.90;;;;;;5053048;28;20488;-73
2022/09/29 05:36:50;;;;;;;18.00;11.77;;;8.50;99.90;;;;;;5053147;28;21024;-73
2022/09/29 05:39:19;;;;;;;15.50;10.40;;;8.60;99.90;;;;;;5053155;28;20515;-73
2022/09/29 05:41:48;;;;;;;18.90;12.57;;;8.60;99.90;;;;;;5053306;28;20437;-73
2022/09/29 05:44:15;;;;;;;18.80;13.50;;;8.60;99.90;;;;;;5053143;28;20839;-73
2022/09/29 05:46:42;;;;;;;22.43;13.63;;;8.50;99.90;;;;;;5052812;28;20515;-73
2022/09/29 05:49:09;;;;;;;15.20;11.57;;;8.60;99.90;;;;;;5053304;28;20472;-73
2022/09/29 05:51:36;;;;;;;15.87;11.80;;;8.60;99.90;;;;;;5053578;28;20794;-73
2022/09/29 05:54:03;;;;;;;23.90;12.57;;;8.60;99.90;;;;;;5053506;28;20835;-73
2022/09/29 05:56:30;;;;;;;19.30;13.10;;;8.60;99.90;;;;;;5052643;28;21044;-73
2022/09/29 05:59:00;;;;;;;17.40;12.70;;;8.60;99.90;;;;;;5052602;28;20447;-73
2022/09/29 06:01:26;;;;;;;18.70;12.83;;;8.60;99.90;;;;;;5053033;28;20780;-73
2022/09/29 06:03:54;;;;;;;19.70;12.30;;;8.70;99.90;;;;;;5052812;28;20448;-74
2022/09/29 06:06:23;;;;;;;14.50;11.87;;;8.60;99.90;;;;;;5056654;28;20817;-74
2022/09/29 06:08:51;;;;;;;17.70;12.43;;;8.60;99.90;;;;;;5056552;28;20508;-74
2022/09/29 06:11:20;;;;;;;14.97;12.10;;;8.60;99.90;;;;;;5056770;28;20428;-73
2022/09/29 06:13:49;;;;;;;20.23;11.73;;;8.70;99.90;;;;;;5056684;28;20860;-73
2022/09/29 06:16:19;;;;;;;21.03;13.10;;;8.60;99.90;;;;;;5056711;28;20420;-74
2022/09/29 06:18:46;;;;;;;17.20;11.45;;;8.60;99.90;;;;;;5056791;28;20530;-74
2022/09/29 06:21:15;;;;;;;19.42;11.77;;;8.60;99.90;;;;;;5056670;28;20206;-73
2022/09/29 06:23:42;;;;;;;17.45;11.85;;;8.50;99.90;;;;;;5056368;28;20680;-74
2022/09/29 06:26:10;;;;;;;15.47;11.13;;;8.40;99.90;;;;;;5061211;28;20210;-74
2022/09/29 06:28:37;;;;;;;18.60;12.47;;;8.60;99.90;;;;;;5056631;28;20835;-74
2022/09/29 06:31:06;;;;;;;16.43;12.17;;;8.60;99.90;;;;;;5056388;28;20432;-73
2022/09/29 06:33:35;;;;;;;20.80;13.37;;;8.60;99.90;;;;;;5056460;28;20939;-74
2022/09/29 06:38:49;;;;;;;18.63;12.10;;;8.60;99.90;;;;;;5056505;28;20437;-73
2022/09/29 06:41:16;;;;;;;18.13;10.83;;;8.50;99.90;;;;;;5056364;28;20466;-73
2022/09/29 06:43:42;;;;;;;15.37;10.90;;;8.50;99.90;;;;;;5056318;28;20431;-74
2022/09/29 06:46:09;;;;;;;20.67;12.80;;;8.70;99.90;;;;;;5056125;28;20475;-74
2022/09/29 06:48:37;;;;;;;23.33;13.00;;;8.10;99.90;;;;;;5056203;28;20524;-74
2022/09/29 06:51:07;;;;;;;24.25;15.00;;;8.50;99.90;;;;;;5056237;28;20456;-74
2022/09/29 06:53:34;;;;;;;21.60;14.77;;;8.60;99.90;;;;;;5056899;28;20238;-74
2022/09/29 06:56:01;;;;;;;18.25;13.45;;;8.60;99.90;;;;;;5056945;28;20497;-73
2022/09/29 06:58:29;;;;;;;21.07;14.50;;;8.60;99.90;;;;;;5055920;28;20233;-73
2022/09/29 07:00:59;;;;;;;20.33;13.67;;;8.60;99.90;;;;;;5055982;28;20476;-74
2022/09/29 07:03:26;;;;;;;22.50;15.60;;;8.60;99.90;;;;;;5055860;28;20462;-74
2022/09/29 07:05:54;;;;;;;21.80;14.00;;;8.60;99.90;;;;;;5055778;28;20983;-74
2022/09/29 07:08:20;;;;;;;23.73;14.67;;;8.60;99.90;;;;;;5075122;22;20470;-75
2022/09/29 07:10:48;;;;;;;24.60;16.07;;;8.60;99.90;;;;;;5075663;28;20450;-76
2022/09/29 07:13:14;;;;;;;25.73;18.37;;;8.70;99.90;;;;;;5075747;28;20443;-75
2022/09/29 07:15:41;;;;;;;27.60;18.37;;;8.70;99.90;;;;;;5075461;28;20427;-75
2022/09/29 07:18:08;;;;;;;29.47;16.80;;;8.70;99.90;;;;;;5075885;28;20531;-75
2022/09/29 07:20:36;;;;;;;25.90;16.40;;;8.70;99.90;;;;;;5075782;28;20491;-75
2022/09/29 07:23:03;;;;;;;23.07;16.67;;;8.80;99.90;;;;;;5076079;28;20419;-74
2022/09/29 07:25:31;;;;;;;23.40;15.50;;;8.90;99.90;;;;;;5076076;28;20415;-75
2022/09/29 07:27:57;;;;;;;22.83;15.83;;;8.70;99.90;;;;;;5075769;28;20484;-76
2022/09/29 07:30:26;;;;;;;21.83;13.73;;;8.80;99.90;;;;;;5075464;28;20445;-74
2022/09/29 07:32:54;;;;;;;25.50;15.63;;;8.80;99.90;;;;;;5075905;28;20893;-74
2022/09/29 07:35:21;;;;;;;26.60;16.50;;;8.80;99.90;;;;;;5076315;28;20423;-76
2022/09/29 07:37:51;;;;;;;24.60;15.87;;;8.90;99.90;;;;;;5075391;28;20825;-75
2022/09/29 07:40:20;;;;;;;26.67;17.70;;;9.00;99.90;;;;;;5075290;28;20836;-75
2022/09/29 07:42:46;;;;;;;26.53;16.60;;;9.00;99.90;;;;;;5075203;28;20424;-76
2022/09/29 07:45:13;;;;;;;21.80;15.47;;;8.90;99.90;;;;;;5075297;28;20480;-75
2022/09/29 07:47:40;;;;;;;21.57;15.77;;;9.00;99.90;;;;;;5074945;28;20800;-75
2022/09/29 07:50:07;;;;;;;26.53;17.57;;;9.10;99.90;;;;;;5074890;28;20521;-76
2022/09/29 07:52:34;;;;;;;29.20;16.13;;;9.20;99.90;;;;;;5074510;28;20966;-75
2022/09/29 07:55:00;;;;;;;21.17;15.97;;;9.20;99.90;;;;;;5074557;28;20473;-75
2022/09/29 07:57:28;;;;;;;25.57;17.00;;;9.20;99.90;;;;;;5075197;28;20833;-75
2022/09/29 07:59:57;;;;;;;26.93;17.40;;;9.30;99.90;;;;;;5074750;28;20443;-76
2022/09/29 08:02:23;;;;;;;28.87;15.30;;;9.40;99.90;;;;;;5074658;28;20455;-75
2022/09/29 08:04:50;;;;;;;25.73;17.07;;;9.30;99.90;;;;;;5075362;28;20444;-75
2022/09/29 08:07:17;;;;;;;24.43;17.00;;;9.40;99.90;;;;;;5075914;28;20454;-75
2022/09/29 08:09:44;;;;;;;27.43;16.30;;;9.20;99.90;;;;;;5074821;28;20451;-74
2022/09/29 08:12:12;;;;;;;27.50;17.00;;;9.30;99.90;;;;;;5074682;28;20447;-74
2022/09/29 08:14:42;;;;;;;44.97;17.50;;;9.40;99.90;;;;;;5074378;28;20430;-75
2022/09/29 08:17:08;;;;;;;23.90;16.80;;;9.40;99.90;;;;;;5074698;28;20814;-75
2022/09/29 08:19:35;;;;;;;23.80;17.10;;;9.50;99.90;;;;;;5074305;28;20862;-75
2022/09/29 08:22:02;;;;;;;32.23;18.23;;;9.50;99.90;;;;;;5074340;28;20856;-75
2022/09/29 08:24:30;;;;;;;24.23;16.70;;;9.60;99.90;;;;;;5074371;28;20497;-75
2022/09/29 08:26:56;;;;;;;24.17;16.13;;;9.70;99.90;;;;;;5073544;28;20459;-74
2022/09/29 08:29:23;;;;;;;27.10;17.20;;;9.70;99.90;;;;;;5074149;28;20465;-74
2022/09/29 08:31:52;;;;;;;21.80;16.70;;;9.70;99.90;;;;;;5073864;28;20449;-74
2022/09/29 08:34:19;;;;;;;25.33;18.73;;;9.80;99.90;;;;;;5074507;28;20424;-75
2022/09/29 08:36:46;;;;;;;26.70;18.40;;;9.90;99.90;;;;;;5073659;28;20420;-76
2022/09/29 08:39:14;;;;;;;24.37;17.47;;;10.00;99.90;;;;;;5074112;28;20475;-75
2022/09/29 08:41:52;;;;;;;25.80;17.87;;;10.00;99.90;;;;;;5074100;28;20457;-74
2022/09/29 08:44:26;;;;;;;23.57;17.80;;;10.00;99.90;;;;;;5074030;28;20474;-74
2022/09/29 08:46:58;;;;;;;25.83;17.37;;;10.10;99.90;;;;;;5074749;28;20404;-75
2022/09/29 08:49:31;;;;;;;26.73;18.00;;;10.10;99.90;;;;;;5074780;28;20511;-75
2022/09/29 08:52:05;;;;;;;26.40;16.27;;;10.20;99.90;;;;;;5073949;28;20403;-75
2022/09/29 08:54:34;;;;;;;22.33;15.57;;;10.30;99.90;;;;;;5074602;28;20487;-75
2022/09/29 08:57:02;;;;;;;23.03;16.67;;;10.40;99.90;;;;;;5073787;28;20415;-75
2022/09/29 08:59:30;;;;;;;24.00;15.97;;;10.40;99.90;;;;;;5073645;28;20493;-75
2022/09/29 09:02:16;;;;;;;24.50;16.40;;;10.50;99.90;;;;;;5073244;28;20431;-75
2022/09/29 09:05:12;;;;;;;26.40;16.20;;;10.50;99.90;;;;;;5073517;28;20472;-76
2022/09/29 09:07:45;;;;;;;22.13;15.67;;;10.50;99.90;;;;;;5073304;28;20466;-75
2022/09/29 09:10:21;;;;;;;22.40;15.20;;;10.60;99.90;;;;;;5073768;28;20400;-75
2022/09/29 09:13:07;;;;;;;24.67;16.63;;;10.60;99.90;;;;;;5073870;28;20419;-75
2022/09/29 09:15:57;;;;;;;24.50;15.70;;;10.70;99.90;;;;;;5073609;28;20433;-75
2022/09/29 09:18:43;;;;;;;19.20;15.53;;;10.80;99.90;;;;;;5074347;28;20794;-75
2022/09/29 09:21:15;;;;;;;19.63;15.57;;;10.90;99.90;;;;;;5073153;28;20419;-76
2022/09/29 09:23:53;;;;;;;19.40;14.23;;;10.80;99.90;;;;;;5073384;28;20457;-75
2022/09/29 09:26:23;;;;;;;18.23;14.30;;;11.20;99.90;;;;;;5072940;28;20418;-76
2022/09/29 09:28:53;;;;;;;18.03;13.13;;;11.40;99.90;;;;;;5076907;28;20482;-75
2022/09/29 09:31:25;;;;;;;18.17;14.40;;;11.50;99.90;;;;;;5080119;28;20433;-75
2022/09/29 09:33:57;;;;;;;19.10;13.60;;;11.60;99.90;;;;;;5081623;28;20429;-75
2022/09/29 09:36:32;;;;;;;21.63;16.93;;;11.70;99.90;;;;;;5075261;28;20794;-75
2022/09/29 09:39:03;;;;;;;19.27;13.40;;;11.80;99.90;;;;;;5073647;28;20460;-75
2022/09/29 09:41:33;;;;;;;18.43;13.70;;;11.70;99.90;;;;;;5073486;28;20472;-75
2022/09/29 09:44:07;;;;;;;25.20;14.10;;;11.90;99.90;;;;;;5073249;28;20890;-75
2022/09/29 09:46:38;;;;;;;15.90;12.10;;;11.90;99.90;;;;;;5073390;28;20433;-75
2022/09/29 09:49:18;;;;;;;15.40;12.50;;;12.00;99.90;;;;;;5073089;28;20566;-75
2022/09/29 09:51:53;;;;;;;15.60;12.43;;;11.90;99.90;;;;;;5073718;28;20422;-74
2022/09/29 09:54:28;;;;;;;18.13;13.67;;;12.00;99.90;;;;;;5073067;28;20905;-74
2022/09/29 09:57:32;;;;;;;18.73;12.23;;;12.00;99.90;;;;;;5073147;28;20425;-74
2022/09/29 10:00:10;;;;;;;16.80;12.97;;;12.10;99.90;;;;;;5073991;28;20460;-73
2022/09/29 10:02:42;;;;;;;13.83;11.73;;;12.10;99.90;;;;;;5075567;28;20519;-75
2022/09/29 10:05:16;;;;;;;15.57;12.60;;;12.00;99.90;;;;;;5075029;28;20437;-76
2022/09/29 10:07:44;;;;;;;18.33;11.30;;;12.20;99.90;;;;;;5077053;28;20455;-78
2022/09/29 10:10:31;;;;;;;11.90;10.60;;;12.20;99.90;;;;;;5074663;28;20511;-75
2022/09/29 10:13:07;;;;;;;13.70;10.40;;;12.10;99.90;;;;;;5077217;28;20396;-75
2022/09/29 10:15:38;;;;;;;16.17;12.10;;;12.70;99.90;;;;;;5075766;28;20436;-76
2022/09/29 10:18:11;;;;;;;13.90;10.80;;;12.20;99.90;;;;;;5075707;28;20464;-74
2022/09/29 10:20:41;;;;;;;15.00;12.83;;;12.20;99.90;;;;;;5074592;28;20888;-73
2022/09/29 10:23:25;;;;;;;16.33;11.00;;;12.20;99.90;;;;;;5075293;28;20400;-75
2022/09/29 10:26:13;;;;;;;13.37;10.77;;;12.30;99.90;;;;;;5074759;28;20953;-76
2022/09/29 10:28:48;;;;;;;17.13;12.37;;;13.00;99.90;;;;;;5075091;28;20488;-75
2022/09/29 10:31:24;;;;;;;15.70;10.90;;;12.60;99.90;;;;;;5075102;28;20471;-75
2022/09/29 10:33:54;;;;;;;13.83;11.90;;;12.80;99.90;;;;;;5073637;28;20447;-75
2022/09/29 10:36:23;;;;;;;20.03;11.90;;;12.70;99.90;;;;;;5073204;28;20470;-74
2022/09/29 10:38:52;;;;;;;13.27;10.50;;;12.90;99.90;;;;;;5072504;28;20479;-74
2022/09/29 10:41:19;;;;;;;16.00;12.00;;;12.90;99.90;;;;;;5072861;28;20452;-76
2022/09/29 10:43:48;;;;;;;13.83;10.43;;;13.00;99.90;;;;;;5072889;28;20480;-74
2022/09/29 10:46:46;;;;;;;16.67;10.90;;;13.20;99.90;;;;;;5073481;28;20456;-74
2022/09/29 10:49:15;;;;;;;17.27;11.03;;;13.00;99.90;;;;;;5074369;28;20496;-74
2022/09/29 10:51:53;;;;;;;10.50;9.30;;;13.00;99.90;;;;;;5075324;28;20445;-74
2022/09/29 10:54:21;;;;;;;12.83;10.07;;;12.90;99.90;;;;;;5076579;28;20411;-74
2022/09/29 10:56:49;;;;;;;16.20;9.53;;;13.20;99.90;;;;;;5075892;28;20455;-75
2022/09/29 10:59:17;;;;;;;28.53;10.87;;;13.00;99.90;;;;;;5076154;28;20442;-76
2022/09/29 11:01:49;;;;;;;18.20;9.13;;;13.00;99.90;;;;;;5077499;28;20451;-75
2022/09/29 11:04:19;;;;;;;12.87;8.67;;;13.00;99.90;;;;;;5076586;28;20433;-76
2022/09/29 11:06:48;;;;;;;39.53;10.67;;;13.00;99.90;;;;;;5076910;28;20411;-74
2022/09/29 11:09:29;;;;;;;11.10;9.13;;;12.90;99.90;;;;;;5075896;28;20511;-75
2022/09/29 11:11:58;;;;;;;14.37;11.07;;;12.90;99.90;;;;;;5076093;28;20445;-75
2022/09/29 11:14:27;;;;;;;9.57;8.67;;;13.00;99.90;;;;;;5076103;28;20472;-74
2022/09/29 11:16:55;;;;;;;11.43;8.30;;;13.10;1.00;;;;;;5075969;28;20420;-76
2022/09/29 11:19:23;;;;;;;11.93;10.00;;;13.20;99.90;;;;;;5076122;28;20489;-74
2022/09/29 11:22:14;;;;;;;13.07;8.90;;;13.20;99.90;;;;;;5076010;28;20456;-74
2022/09/29 11:24:59;;;;;;;11.57;9.17;;;13.30;1.00;;;;;;5075320;28;20905;-75
2022/09/29 11:27:38;;;;;;;10.20;9.20;;;13.30;99.90;;;;;;5075732;28;20399;-75
2022/09/29 11:30:09;;;;;;;12.37;10.00;;;13.40;99.90;;;;;;5075928;28;20816;-75
2022/09/29 11:32:51;;;;;;;12.30;9.37;;;13.30;1.00;;;;;;5075823;28;20437;-76
2022/09/29 11:35:37;;;;;;;10.57;8.50;;;13.30;99.90;;;;;;5075368;28;20433;-74
2022/09/29 11:38:25;;;;;;;8.67;7.83;;;13.10;99.90;;;;;;5075107;28;20460;-75
2022/09/29 11:41:12;;;;;;;10.77;9.20;;;13.10;99.90;;;;;;5075504;28;20437;-75
2022/09/29 11:43:46;;;;;;;9.33;8.43;;;13.30;99.90;;;;;;5075381;28;20531;-75
2022/09/29 11:46:35;;;;;;;10.80;8.70;;;13.40;99.90;;;;;;5075047;28;20432;-75
2022/09/29 11:49:30;;;;;;;9.33;8.33;;;13.50;1.00;;;;;;5075038;28;20492;-75
2022/09/29 11:52:18;;;;;;;10.20;7.40;;;13.40;1.00;;;;;;5074490;28;20433;-75
2022/09/29 11:55:13;;;;;;;7.00;6.30;;;13.30;1.00;;;;;;5075628;28;20451;-74
2022/09/29 11:57:51;;;;;;;9.60;6.70;;;13.20;99.90;;;;;;5075184;28;20404;-75
2022/09/29 12:00:19;;;;;;;10.03;7.17;;;13.20;99.90;;;;;;5075194;28;20436;-75
2022/09/29 12:03:22;;;;;;;6.83;6.13;;;13.10;1.00;;;;;;5073766;28;20455;-75
2022/09/29 12:06:12;;;;;;;9.97;7.10;;;13.10;84.30;;;;;;5069088;28;20502;-78
2022/09/29 12:09:00;;;;;;;7.00;6.30;;;12.90;99.90;;;;;;5074466;28;20467;-76
2022/09/29 12:11:40;;;;;;;6.53;5.93;;;13.00;1.00;;;;;;5074868;28;20465;-75
2022/09/29 12:14:15;;;;;;;6.60;5.57;;;13.00;99.90;;;;;;5075145;28;20456;-75
2022/09/29 12:16:51;;;;;;;8.70;6.57;;;13.00;1.00;;;;;;5074946;28;20452;-75
2022/09/29 12:19:21;;;;;;;6.33;5.70;;;13.00;54.20;;;;;;5074494;28;20514;-75
2022/09/29 12:21:49;;;;;;;10.50;6.13;;;13.00;1.00;;;;;;5075110;28;20761;-75
2022/09/29 12:24:20;;;;;;;7.23;6.10;;;12.90;99.90;;;;;;5074521;28;20909;-75
2022/09/29 12:26:50;;;;;;;10.87;7.67;;;12.90;99.90;;;;;;5074357;28;20993;-75
2022/09/29 12:29:33;;;;;;;9.30;8.40;;;13.10;1.00;;;;;;5074354;28;20493;-75
2022/09/29 12:32:05;;;;;;;7.80;6.80;;;13.10;1.00;;;;;;5075702;28;20403;-75
2022/09/29 12:34:39;;;;;;;7.47;6.67;;;13.50;1.00;;;;;;5076138;28;20919;-75
2022/09/29 12:37:15;;;;;;;7.70;6.40;;;13.50;1.00;;;;;;5074991;28;20403;-74
2022/09/29 12:39:50;;;;;;;8.73;6.63;;;13.80;1.00;;;;;;5074623;28;20456;-74
2022/09/29 12:42:36;;;;;;;6.30;5.73;;;13.80;46.70;;;;;;5074158;28;20490;-74
2022/09/29 12:45:08;;;;;;;8.80;6.23;;;13.70;1.00;;;;;;5074367;28;20421;-74
2022/09/29 12:47:48;;;;;;;10.37;7.00;;;13.60;1.00;;;;;;5074029;28;20425;-76
2022/09/29 12:50:19;;;;;;;8.40;7.50;;;13.70;1.00;;;;;;5075708;28;20488;-74
2022/09/29 12:52:54;;;;;;;6.90;6.03;;;13.80;6.00;;;;;;5073971;28;20412;-74
2022/09/29 12:55:29;;;;;;;6.23;5.10;;;13.90;99.90;;;;;;5073942;28;20796;-74
2022/09/29 12:58:03;;;;;;;6.70;6.00;;;13.70;99.90;;;;;;5073438;28;20429;-74
2022/09/29 13:00:33;;;;;;;6.30;5.53;;;13.80;1.00;;;;;;5073747;28;20435;-75
2022/09/29 13:03:22;;;;;;;6.70;5.00;;;13.70;1.00;;;;;;5074003;28;20496;-74